sensor_id;sensor_type;location;lat;lon;timestamp;temperature;humidity
52919;DHT22;38793;52.690;6.812;2023-02-15T00:01:41;2.50;99.90
52919;DHT22;38793;52.690;6.812;2023-02-15T00:04:08;2.50;99.90
52919;DHT22;38793;52.690;6.812;2023-02-15T00:06:34;2.50;99.90
52919;DHT22;38793;52.690;6.812;2023-02-15T00:09:00;2.50;99.90
52919;DHT22;38793;52.690;6.812;2023-02-15T00:11:26;2.50;99.90
52919;DHT22;38793;52.690;6.812;2023-02-15T00:14:24;2.40;99.90
52919;DHT22;38793;52.690;6.812;2023-02-15T00:16:51;2.40;99.90
52919;DHT22;38793;52.690;6.812;2023-02-15T00:19:19;2.40;99.90
52919;DHT22;38793;52.690;6.812;2023-02-15T00:21:45;2.40;99.90
52919;DHT22;38793;52.690;6.812;2023-02-15T00:24:13;2.30;99.90
52919;DHT22;38793;52.690;6.812;2023-02-15T00:26:40;2.30;99.90
52919;DHT22;38793;52.690;6.812;2023-02-15T00:29:07;2.20;99.90
52919;DHT22;38793;52.690;6.812;2023-02-15T00:31:33;2.10;99.90
52919;DHT22;38793;52.690;6.812;2023-02-15T00:34:02;2.00;99.90
52919;DHT22;38793;52.690;6.812;2023-02-15T00:36:28;1.90;99.90
52919;DHT22;38793;52.690;6.812;2023-02-15T00:38:54;1.90;99.90
52919;DHT22;38793;52.690;6.812;2023-02-15T00:41:19;1.90;99.90
52919;DHT22;38793;52.690;6.812;2023-02-15T00:43:45;1.90;99.90
52919;DHT22;38793;52.690;6.812;2023-02-15T00:46:10;1.80;99.90
52919;DHT22;38793;52.690;6.812;2023-02-15T00:48:36;1.80;99.90
52919;DHT22;38793;52.690;6.812;2023-02-15T00:51:02;1.70;99.90
52919;DHT22;38793;52.690;6.812;2023-02-15T00:53:28;1.70;99.90
52919;DHT22;38793;52.690;6.812;2023-02-15T00:55:54;1.80;99.90
52919;DHT22;38793;52.690;6.812;2023-02-15T00:58:20;1.80;99.90
52919;DHT22;38793;52.690;6.812;2023-02-15T01:00:46;1.80;99.90
52919;DHT22;38793;52.690;6.812;2023-02-15T01:03:14;1.70;99.90
52919;DHT22;38793;52.690;6.812;2023-02-15T01:05:40;1.70;99.90
52919;DHT22;38793;52.690;6.812;2023-02-15T01:08:06;1.70;99.90
52919;DHT22;38793;52.690;6.812;2023-02-15T01:10:33;1.60;99.90
52919;DHT22;38793;52.690;6.812;2023-02-15T01:12:58;1.60;99.90
52919;DHT22;38793;52.690;6.812;2023-02-15T01:15:24;1.50;99.90
52919;DHT22;38793;52.690;6.812;2023-02-15T01:17:50;1.40;99.90
52919;DHT22;38793;52.690;6.812;2023-02-15T01:20:24;1.50;99.90
52919;DHT22;38793;52.690;6.812;2023-02-15T01:22:50;1.50;99.90
52919;DHT22;38793;52.690;6.812;2023-02-15T01:25:21;1.50;99.90
52919;DHT22;38793;52.690;6.812;2023-02-15T01:27:47;1.50;99.90
52919;DHT22;38793;52.690;6.812;2023-02-15T01:30:14;1.50;99.90
52919;DHT22;38793;52.690;6.812;2023-02-15T01:32:40;1.50;99.90
52919;DHT22;38793;52.690;6.812;2023-02-15T01:35:07;1.50;99.90
52919;DHT22;38793;52.690;6.812;2023-02-15T01:37:33;1.40;99.90
52919;DHT22;38793;52.690;6.812;2023-02-15T01:39:59;1.30;99.90
52919;DHT22;38793;52.690;6.812;2023-02-15T01:42:27;1.30;99.90
52919;DHT22;38793;52.690;6.812;2023-02-15T01:44:56;1.20;99.90
52919;DHT22;38793;52.690;6.812;2023-02-15T01:47:44;1.20;99.90
52919;DHT22;38793;52.690;6.812;2023-02-15T01:55:37;1.10;99.90
52919;DHT22;38793;52.690;6.812;2023-02-15T01:58:03;1.10;99.90
52919;DHT22;38793;52.690;6.812;2023-02-15T02:00:29;1.10;99.90
52919;DHT22;38793;52.690;6.812;2023-02-15T02:02:56;1.20;99.90
52919;DHT22;38793;52.690;6.812;2023-02-15T02:05:22;1.20;99.90
52919;DHT22;38793;52.690;6.812;2023-02-15T02:07:50;1.20;99.90
52919;DHT22;38793;52.690;6.812;2023-02-15T02:10:20;1.10;99.90
52919;DHT22;38793;52.690;6.812;2023-02-15T02:12:47;1.00;99.90
52919;DHT22;38793;52.690;6.812;2023-02-15T02:15:15;1.00;99.90
52919;DHT22;38793;52.690;6.812;2023-02-15T02:18:10;0.90;99.90
52919;DHT22;38793;52.690;6.812;2023-02-15T02:23:25;0.90;99.90
52919;DHT22;38793;52.690;6.812;2023-02-15T02:29:08;0.80;99.90
52919;DHT22;38793;52.690;6.812;2023-02-15T02:31:49;0.80;99.90
52919;DHT22;38793;52.690;6.812;2023-02-15T02:34:28;0.80;99.90
52919;DHT22;38793;52.690;6.812;2023-02-15T02:40:05;0.70;99.90
52919;DHT22;38793;52.690;6.812;2023-02-15T02:42:55;0.70;99.90
52919;DHT22;38793;52.690;6.812;2023-02-15T02:45:40;0.70;99.90
52919;DHT22;38793;52.690;6.812;2023-02-15T02:48:15;0.60;99.90
52919;DHT22;38793;52.690;6.812;2023-02-15T02:50:42;0.60;99.90
52919;DHT22;38793;52.690;6.812;2023-02-15T02:53:09;0.60;99.90
52919;DHT22;38793;52.690;6.812;2023-02-15T02:55:49;0.60;99.90
52919;DHT22;38793;52.690;6.812;2023-02-15T02:58:45;0.60;99.90
52919;DHT22;38793;52.690;6.812;2023-02-15T03:01:23;0.60;99.90
52919;DHT22;38793;52.690;6.812;2023-02-15T03:03:54;0.60;99.90
52919;DHT22;38793;52.690;6.812;2023-02-15T03:06:30;0.60;99.90
52919;DHT22;38793;52.690;6.812;2023-02-15T03:09:03;0.50;99.90
52919;DHT22;38793;52.690;6.812;2023-02-15T03:11:32;0.50;99.90
52919;DHT22;38793;52.690;6.812;2023-02-15T03:13:58;0.40;99.90
52919;DHT22;38793;52.690;6.812;2023-02-15T03:16:23;0.40;99.90
52919;DHT22;38793;52.690;6.812;2023-02-15T03:19:05;0.30;99.90
52919;DHT22;38793;52.690;6.812;2023-02-15T03:22:05;0.30;99.90
52919;DHT22;38793;52.690;6.812;2023-02-15T03:24:43;0.30;99.90
52919;DHT22;38793;52.690;6.812;2023-02-15T03:27:13;0.40;99.90
52919;DHT22;38793;52.690;6.812;2023-02-15T03:29:43;0.40;99.90
52919;DHT22;38793;52.690;6.812;2023-02-15T03:32:11;0.40;99.90
52919;DHT22;38793;52.690;6.812;2023-02-15T03:34:37;0.50;99.90
52919;DHT22;38793;52.690;6.812;2023-02-15T03:39:54;0.50;99.90
52919;DHT22;38793;52.690;6.812;2023-02-15T03:42:33;0.50;99.90
52919;DHT22;38793;52.690;6.812;2023-02-15T03:45:09;0.40;99.90
52919;DHT22;38793;52.690;6.812;2023-02-15T03:47:42;0.40;99.90
52919;DHT22;38793;52.690;6.812;2023-02-15T03:50:22;0.40;99.90
52919;DHT22;38793;52.690;6.812;2023-02-15T03:53:11;0.40;99.90
52919;DHT22;38793;52.690;6.812;2023-02-15T03:55:41;0.30;99.90
52919;DHT22;38793;52.690;6.812;2023-02-15T03:58:11;0.30;99.90
52919;DHT22;38793;52.690;6.812;2023-02-15T04:00:58;0.20;99.90
52919;DHT22;38793;52.690;6.812;2023-02-15T04:03:51;0.20;99.90
52919;DHT22;38793;52.690;6.812;2023-02-15T04:06:18;0.10;99.90
52919;DHT22;38793;52.690;6.812;2023-02-15T04:08:44;0.10;99.90
52919;DHT22;38793;52.690;6.812;2023-02-15T04:11:28;0.00;99.90
52919;DHT22;38793;52.690;6.812;2023-02-15T04:13:54;0.00;99.90
52919;DHT22;38793;52.690;6.812;2023-02-15T04:16:22;0.00;99.90
52919;DHT22;38793;52.690;6.812;2023-02-15T04:18:48;0.00;99.90
52919;DHT22;38793;52.690;6.812;2023-02-15T04:21:32;0.00;99.90
52919;DHT22;38793;52.690;6.812;2023-02-15T04:24:16;0.00;99.90
52919;DHT22;38793;52.690;6.812;2023-02-15T04:27:01;0.00;99.90
52919;DHT22;38793;52.690;6.812;2023-02-15T04:29:28;0.00;99.90
52919;DHT22;38793;52.690;6.812;2023-02-15T04:31:55;0.00;99.90
52919;DHT22;38793;52.690;6.812;2023-02-15T04:34:21;0.00;99.90
52919;DHT22;38793;52.690;6.812;2023-02-15T04:36:47;0.00;99.90
52919;DHT22;38793;52.690;6.812;2023-02-15T04:39:14;0.00;99.90
52919;DHT22;38793;52.690;6.812;2023-02-15T04:41:40;0.00;99.90
52919;DHT22;38793;52.690;6.812;2023-02-15T04:44:06;0.00;99.90
52919;DHT22;38793;52.690;6.812;2023-02-15T04:46:31;0.00;99.90
52919;DHT22;38793;52.690;6.812;2023-02-15T04:48:57;0.00;99.90
52919;DHT22;38793;52.690;6.812;2023-02-15T04:51:23;-0.10;99.90
52919;DHT22;38793;52.690;6.812;2023-02-15T04:53:49;-0.10;99.90
52919;DHT22;38793;52.690;6.812;2023-02-15T04:56:15;-0.10;99.90
52919;DHT22;38793;52.690;6.812;2023-02-15T04:58:40;-0.10;99.90
52919;DHT22;38793;52.690;6.812;2023-02-15T05:01:09;-0.10;99.90
52919;DHT22;38793;52.690;6.812;2023-02-15T05:03:35;-0.10;99.90
52919;DHT22;38793;52.690;6.812;2023-02-15T05:06:01;-0.10;99.90
52919;DHT22;38793;52.690;6.812;2023-02-15T05:08:26;-0.10;99.90
52919;DHT22;38793;52.690;6.812;2023-02-15T05:10:52;-0.20;99.90
52919;DHT22;38793;52.690;6.812;2023-02-15T05:13:18;-0.20;99.90
52919;DHT22;38793;52.690;6.812;2023-02-15T05:15:50;-0.20;99.90
52919;DHT22;38793;52.690;6.812;2023-02-15T05:18:17;-0.20;99.90
52919;DHT22;38793;52.690;6.812;2023-02-15T05:20:43;-0.20;99.90
52919;DHT22;38793;52.690;6.812;2023-02-15T05:23:09;-0.20;99.90
52919;DHT22;38793;52.690;6.812;2023-02-15T05:25:35;-0.20;99.90
52919;DHT22;38793;52.690;6.812;2023-02-15T05:28:19;-0.20;99.90
52919;DHT22;38793;52.690;6.812;2023-02-15T05:30:50;-0.20;99.90
52919;DHT22;38793;52.690;6.812;2023-02-15T05:33:16;-0.20;99.90
52919;DHT22;38793;52.690;6.812;2023-02-15T05:35:42;-0.10;99.90
52919;DHT22;38793;52.690;6.812;2023-02-15T05:38:08;-0.10;99.90
52919;DHT22;38793;52.690;6.812;2023-02-15T05:40:34;-0.10;99.90
52919;DHT22;38793;52.690;6.812;2023-02-15T05:43:00;-0.20;99.90
52919;DHT22;38793;52.690;6.812;2023-02-15T05:45:25;-0.20;99.90
52919;DHT22;38793;52.690;6.812;2023-02-15T05:47:51;-0.10;99.90
52919;DHT22;38793;52.690;6.812;2023-02-15T05:50:17;-0.10;99.90
52919;DHT22;38793;52.690;6.812;2023-02-15T05:52:43;-0.10;99.90
52919;DHT22;38793;52.690;6.812;2023-02-15T05:55:08;-0.10;99.90
52919;DHT22;38793;52.690;6.812;2023-02-15T05:57:35;0.00;99.90
52919;DHT22;38793;52.690;6.812;2023-02-15T06:00:02;0.00;99.90
52919;DHT22;38793;52.690;6.812;2023-02-15T06:02:32;0.00;99.90
52919;DHT22;38793;52.690;6.812;2023-02-15T06:04:59;0.10;99.90
52919;DHT22;38793;52.690;6.812;2023-02-15T06:07:24;0.00;99.90
52919;DHT22;38793;52.690;6.812;2023-02-15T06:09:50;-0.10;99.90
52919;DHT22;38793;52.690;6.812;2023-02-15T06:12:15;-0.10;99.90
52919;DHT22;38793;52.690;6.812;2023-02-15T06:14:41;-0.20;99.90
52919;DHT22;38793;52.690;6.812;2023-02-15T06:17:07;-0.20;99.90
52919;DHT22;38793;52.690;6.812;2023-02-15T06:19:32;-0.20;99.90
52919;DHT22;38793;52.690;6.812;2023-02-15T06:21:58;-0.20;99.90
52919;DHT22;38793;52.690;6.812;2023-02-15T06:24:23;-0.20;99.90
52919;DHT22;38793;52.690;6.812;2023-02-15T06:26:49;-0.10;99.90
52919;DHT22;38793;52.690;6.812;2023-02-15T06:29:15;-0.10;99.90
52919;DHT22;38793;52.690;6.812;2023-02-15T06:31:40;-0.10;99.90
52919;DHT22;38793;52.690;6.812;2023-02-15T06:34:06;0.00;99.90
52919;DHT22;38793;52.690;6.812;2023-02-15T06:36:31;0.00;99.90
52919;DHT22;38793;52.690;6.812;2023-02-15T06:38:57;0.00;99.90
52919;DHT22;38793;52.690;6.812;2023-02-15T06:41:23;0.00;99.90
52919;DHT22;38793;52.690;6.812;2023-02-15T06:43:49;0.00;99.90
52919;DHT22;38793;52.690;6.812;2023-02-15T06:46:15;0.00;99.90
52919;DHT22;38793;52.690;6.812;2023-02-15T06:48:40;0.10;99.90
52919;DHT22;38793;52.690;6.812;2023-02-15T06:51:06;0.10;99.90
52919;DHT22;38793;52.690;6.812;2023-02-15T06:53:31;0.10;99.90
52919;DHT22;38793;52.690;6.812;2023-02-15T06:56:01;0.10;99.90
52919;DHT22;38793;52.690;6.812;2023-02-15T06:58:28;0.00;99.90
52919;DHT22;38793;52.690;6.812;2023-02-15T07:00:54;0.00;99.90
52919;DHT22;38793;52.690;6.812;2023-02-15T07:03:19;0.00;99.90
52919;DHT22;38793;52.690;6.812;2023-02-15T07:05:45;0.00;99.90
52919;DHT22;38793;52.690;6.812;2023-02-15T07:08:12;0.00;99.90
52919;DHT22;38793;52.690;6.812;2023-02-15T07:10:38;0.00;99.90
52919;DHT22;38793;52.690;6.812;2023-02-15T07:13:04;0.00;99.90
52919;DHT22;38793;52.690;6.812;2023-02-15T07:15:29;0.10;99.90
52919;DHT22;38793;52.690;6.812;2023-02-15T07:17:57;0.20;99.90
52919;DHT22;38793;52.690;6.812;2023-02-15T07:20:23;0.40;99.90
52919;DHT22;38793;52.690;6.812;2023-02-15T07:22:49;0.70;99.90
52919;DHT22;38793;52.690;6.812;2023-02-15T07:25:15;1.00;99.90
52919;DHT22;38793;52.690;6.812;2023-02-15T07:27:41;1.30;99.90
52919;DHT22;38793;52.690;6.812;2023-02-15T07:30:09;1.60;99.90
52919;DHT22;38793;52.690;6.812;2023-02-15T07:32:35;2.00;99.90
52919;DHT22;38793;52.690;6.812;2023-02-15T07:35:01;2.40;99.90
52919;DHT22;38793;52.690;6.812;2023-02-15T07:37:27;2.80;99.90
52919;DHT22;38793;52.690;6.812;2023-02-15T07:39:53;3.20;99.90
52919;DHT22;38793;52.690;6.812;2023-02-15T07:42:19;3.70;99.90
52919;DHT22;38793;52.690;6.812;2023-02-15T07:44:46;4.20;99.90
52919;DHT22;38793;52.690;6.812;2023-02-15T07:47:12;4.60;99.90
52919;DHT22;38793;52.690;6.812;2023-02-15T07:49:37;5.00;99.90
52919;DHT22;38793;52.690;6.812;2023-02-15T07:52:03;5.40;99.90
52919;DHT22;38793;52.690;6.812;2023-02-15T07:54:29;5.60;99.90
52919;DHT22;38793;52.690;6.812;2023-02-15T07:56:55;5.90;99.90
52919;DHT22;38793;52.690;6.812;2023-02-15T07:59:20;6.10;99.90
52919;DHT22;38793;52.690;6.812;2023-02-15T08:01:46;6.30;99.90
52919;DHT22;38793;52.690;6.812;2023-02-15T08:04:12;6.40;99.90
52919;DHT22;38793;52.690;6.812;2023-02-15T08:06:38;6.10;99.90
52919;DHT22;38793;52.690;6.812;2023-02-15T08:09:08;5.80;99.90
52919;DHT22;38793;52.690;6.812;2023-02-15T08:11:36;5.50;99.90
52919;DHT22;38793;52.690;6.812;2023-02-15T08:14:11;5.30;99.90
52919;DHT22;38793;52.690;6.812;2023-02-15T08:16:45;5.10;99.90
52919;DHT22;38793;52.690;6.812;2023-02-15T08:21:42;4.80;99.90
52919;DHT22;38793;52.690;6.812;2023-02-15T08:24:10;4.80;99.90
52919;DHT22;38793;52.690;6.812;2023-02-15T08:26:36;4.80;99.90
52919;DHT22;38793;52.690;6.812;2023-02-15T08:29:04;4.80;99.90
52919;DHT22;38793;52.690;6.812;2023-02-15T08:31:30;4.80;99.90
52919;DHT22;38793;52.690;6.812;2023-02-15T08:33:56;4.80;99.90
52919;DHT22;38793;52.690;6.812;2023-02-15T08:36:24;4.90;99.90
52919;DHT22;38793;52.690;6.812;2023-02-15T08:38:50;5.10;99.90
52919;DHT22;38793;52.690;6.812;2023-02-15T08:41:25;5.20;99.90
52919;DHT22;38793;52.690;6.812;2023-02-15T08:43:55;5.20;99.90
52919;DHT22;38793;52.690;6.812;2023-02-15T08:46:23;5.20;99.90
52919;DHT22;38793;52.690;6.812;2023-02-15T08:48:49;5.30;99.90
52919;DHT22;38793;52.690;6.812;2023-02-15T08:51:23;5.30;99.90
52919;DHT22;38793;52.690;6.812;2023-02-15T08:53:53;5.30;99.90
52919;DHT22;38793;52.690;6.812;2023-02-15T08:56:23;5.30;99.90
52919;DHT22;38793;52.690;6.812;2023-02-15T08:58:49;5.40;99.90
52919;DHT22;38793;52.690;6.812;2023-02-15T09:01:20;5.50;99.90
52919;DHT22;38793;52.690;6.812;2023-02-15T09:03:47;5.60;99.90
52919;DHT22;38793;52.690;6.812;2023-02-15T09:06:14;5.70;99.90
52919;DHT22;38793;52.690;6.812;2023-02-15T09:08:40;5.80;99.90
52919;DHT22;38793;52.690;6.812;2023-02-15T09:11:14;6.00;99.90
52919;DHT22;38793;52.690;6.812;2023-02-15T09:13:52;6.00;99.90
52919;DHT22;38793;52.690;6.812;2023-02-15T09:16:19;6.10;99.90
52919;DHT22;38793;52.690;6.812;2023-02-15T09:18:45;6.20;99.90
52919;DHT22;38793;52.690;6.812;2023-02-15T09:21:13;6.30;99.90
52919;DHT22;38793;52.690;6.812;2023-02-15T09:23:40;6.40;99.90
52919;DHT22;38793;52.690;6.812;2023-02-15T09:26:12;6.40;99.90
52919;DHT22;38793;52.690;6.812;2023-02-15T09:28:38;6.50;99.90
52919;DHT22;38793;52.690;6.812;2023-02-15T09:31:16;6.60;99.90
52919;DHT22;38793;52.690;6.812;2023-02-15T09:33:42;6.70;99.90
52919;DHT22;38793;52.690;6.812;2023-02-15T09:39:21;6.80;99.90
52919;DHT22;38793;52.690;6.812;2023-02-15T09:42:16;6.90;99.90
52919;DHT22;38793;52.690;6.812;2023-02-15T09:50:40;7.20;99.90
52919;DHT22;38793;52.690;6.812;2023-02-15T09:53:42;7.20;99.90
52919;DHT22;38793;52.690;6.812;2023-02-15T09:56:48;7.30;99.90
52919;DHT22;38793;52.690;6.812;2023-02-15T09:59:49;7.40;99.90
52919;DHT22;38793;52.690;6.812;2023-02-15T10:05:21;7.60;99.90
52919;DHT22;38793;52.690;6.812;2023-02-15T10:10:46;7.60;99.90
52919;DHT22;38793;52.690;6.812;2023-02-15T10:13:40;7.70;99.90
52919;DHT22;38793;52.690;6.812;2023-02-15T10:16:36;7.80;99.90
52919;DHT22;38793;52.690;6.812;2023-02-15T10:19:20;7.80;99.90
52919;DHT22;38793;52.690;6.812;2023-02-15T10:22:10;7.90;99.90
52919;DHT22;38793;52.690;6.812;2023-02-15T10:25:01;7.90;99.90
52919;DHT22;38793;52.690;6.812;2023-02-15T10:27:32;8.00;99.90
52919;DHT22;38793;52.690;6.812;2023-02-15T10:32:38;8.00;99.90
52919;DHT22;38793;52.690;6.812;2023-02-15T10:43:56;8.50;99.90
52919;DHT22;38793;52.690;6.812;2023-02-15T10:55:00;8.70;99.90
52919;DHT22;38793;52.690;6.812;2023-02-15T10:57:59;8.90;99.90
52919;DHT22;38793;52.690;6.812;2023-02-15T11:05:57;9.30;99.90
52919;DHT22;38793;52.690;6.812;2023-02-15T11:08:29;9.50;99.90
52919;DHT22;38793;52.690;6.812;2023-02-15T11:11:02;9.50;99.90
52919;DHT22;38793;52.690;6.812;2023-02-15T11:13:34;9.60;99.90
52919;DHT22;38793;52.690;6.812;2023-02-15T11:16:14;9.60;99.90
52919;DHT22;38793;52.690;6.812;2023-02-15T11:18:57;9.60;99.90
52919;DHT22;38793;52.690;6.812;2023-02-15T11:21:30;9.70;99.90
52919;DHT22;38793;52.690;6.812;2023-02-15T11:24:11;9.70;99.90
52919;DHT22;38793;52.690;6.812;2023-02-15T11:26:43;9.80;99.90
52919;DHT22;38793;52.690;6.812;2023-02-15T11:29:32;9.90;99.90
52919;DHT22;38793;52.690;6.812;2023-02-15T11:32:18;10.00;99.90
52919;DHT22;38793;52.690;6.812;2023-02-15T11:38:10;10.20;99.90
52919;DHT22;38793;52.690;6.812;2023-02-15T11:44:06;10.40;99.90
52919;DHT22;38793;52.690;6.812;2023-02-15T11:46:34;10.50;99.90
52919;DHT22;38793;52.690;6.812;2023-02-15T11:48:59;10.60;99.90
52919;DHT22;38793;52.690;6.812;2023-02-15T11:51:25;10.60;99.90
52919;DHT22;38793;52.690;6.812;2023-02-15T11:53:53;10.60;99.90
52919;DHT22;38793;52.690;6.812;2023-02-15T11:56:22;10.70;99.90
52919;DHT22;38793;52.690;6.812;2023-02-15T11:59:03;10.80;99.90
52919;DHT22;38793;52.690;6.812;2023-02-15T12:01:43;10.90;99.90
52919;DHT22;38793;52.690;6.812;2023-02-15T12:04:25;11.10;99.90
52919;DHT22;38793;52.690;6.812;2023-02-15T12:09:36;11.30;99.90
52919;DHT22;38793;52.690;6.812;2023-02-15T12:12:22;11.40;99.90
52919;DHT22;38793;52.690;6.812;2023-02-15T12:14:53;11.50;99.90
52919;DHT22;38793;52.690;6.812;2023-02-15T12:17:21;11.60;99.90
52919;DHT22;38793;52.690;6.812;2023-02-15T12:19:48;11.70;99.90
52919;DHT22;38793;52.690;6.812;2023-02-15T12:22:29;11.80;99.90
52919;DHT22;38793;52.690;6.812;2023-02-15T12:24:59;11.70;99.90
52919;DHT22;38793;52.690;6.812;2023-02-15T12:27:33;11.80;99.90
52919;DHT22;38793;52.690;6.812;2023-02-15T12:30:35;11.80;99.90
52919;DHT22;38793;52.690;6.812;2023-02-15T12:32:57;11.90;99.90
52919;DHT22;38793;52.690;6.812;2023-02-15T12:35:31;11.90;99.90
52919;DHT22;38793;52.690;6.812;2023-02-15T12:38:03;12.00;99.90
52919;DHT22;38793;52.690;6.812;2023-02-15T12:40:30;12.00;99.90
52919;DHT22;38793;52.690;6.812;2023-02-15T12:42:56;12.00;99.90
52919;DHT22;38793;52.690;6.812;2023-02-15T12:45:31;12.10;99.90
52919;DHT22;38793;52.690;6.812;2023-02-15T12:50:40;12.10;99.90
52919;DHT22;38793;52.690;6.812;2023-02-15T12:53:21;12.20;99.90
52919;DHT22;38793;52.690;6.812;2023-02-15T12:56:01;12.20;99.90
52919;DHT22;38793;52.690;6.812;2023-02-15T12:58:29;12.30;99.90
52919;DHT22;38793;52.690;6.812;2023-02-15T13:01:17;12.40;99.90
52919;DHT22;38793;52.690;6.812;2023-02-15T13:03:56;12.40;99.90
52919;DHT22;38793;52.690;6.812;2023-02-15T13:06:23;12.40;99.90
52919;DHT22;38793;52.690;6.812;2023-02-15T13:08:51;12.40;99.90
52919;DHT22;38793;52.690;6.812;2023-02-15T13:11:22;12.40;99.90
52919;DHT22;38793;52.690;6.812;2023-02-15T13:13:59;12.40;99.90
52919;DHT22;38793;52.690;6.812;2023-02-15T13:18:57;12.50;99.90
52919;DHT22;38793;52.690;6.812;2023-02-15T13:21:26;12.50;99.90
52919;DHT22;38793;52.690;6.812;2023-02-15T13:24:01;12.50;99.90
52919;DHT22;38793;52.690;6.812;2023-02-15T13:26:30;12.60;99.90
52919;DHT22;38793;52.690;6.812;2023-02-15T13:29:00;12.60;99.90
52919;DHT22;38793;52.690;6.812;2023-02-15T13:31:31;12.50;99.90
52919;DHT22;38793;52.690;6.812;2023-02-15T13:34:12;12.40;99.90
52919;DHT22;38793;52.690;6.812;2023-02-15T13:42:14;12.30;99.90
52919;DHT22;38793;52.690;6.812;2023-02-15T14:01:10;12.50;99.90
52919;DHT22;38793;52.690;6.812;2023-02-15T14:06:47;12.60;99.90
52919;DHT22;38793;52.690;6.812;2023-02-15T14:20:37;12.30;99.80
52919;DHT22;38793;52.690;6.812;2023-02-15T14:26:04;12.20;99.90
52919;DHT22;38793;52.690;6.812;2023-02-15T14:28:55;12.10;99.90
52919;DHT22;38793;52.690;6.812;2023-02-15T14:31:30;12.10;99.90
52919;DHT22;38793;52.690;6.812;2023-02-15T14:33:58;12.00;99.90
52919;DHT22;38793;52.690;6.812;2023-02-15T14:36:24;11.90;99.90
52919;DHT22;38793;52.690;6.812;2023-02-15T14:38:53;11.90;99.90
52919;DHT22;38793;52.690;6.812;2023-02-15T14:41:42;11.80;99.90
52919;DHT22;38793;52.690;6.812;2023-02-15T14:44:24;11.80;99.90
52919;DHT22;38793;52.690;6.812;2023-02-15T14:47:11;11.70;99.90
52919;DHT22;38793;52.690;6.812;2023-02-15T14:49:40;11.60;99.90
52919;DHT22;38793;52.690;6.812;2023-02-15T14:52:10;11.60;99.90
52919;DHT22;38793;52.690;6.812;2023-02-15T14:59:49;11.50;99.90
52919;DHT22;38793;52.690;6.812;2023-02-15T15:12:44;11.30;99.90
52919;DHT22;38793;52.690;6.812;2023-02-15T15:15:33;11.30;99.90
52919;DHT22;38793;52.690;6.812;2023-02-15T15:18:03;11.20;99.90
52919;DHT22;38793;52.690;6.812;2023-02-15T15:20:49;11.10;99.90
52919;DHT22;38793;52.690;6.812;2023-02-15T15:26:20;11.10;99.90
52919;DHT22;38793;52.690;6.812;2023-02-15T15:31:46;10.90;99.90
52919;DHT22;38793;52.690;6.812;2023-02-15T15:34:56;10.90;99.90
52919;DHT22;38793;52.690;6.812;2023-02-15T15:40:25;10.80;99.90
52919;DHT22;38793;52.690;6.812;2023-02-15T15:46:11;10.80;99.90
52919;DHT22;38793;52.690;6.812;2023-02-15T15:48:40;10.70;99.90
52919;DHT22;38793;52.690;6.812;2023-02-15T15:51:18;10.70;99.90
52919;DHT22;38793;52.690;6.812;2023-02-15T15:53:46;10.70;99.90
52919;DHT22;38793;52.690;6.812;2023-02-15T15:56:20;10.70;99.90
52919;DHT22;38793;52.690;6.812;2023-02-15T15:58:53;10.60;99.90
52919;DHT22;38793;52.690;6.812;2023-02-15T16:01:28;10.60;99.90
52919;DHT22;38793;52.690;6.812;2023-02-15T16:03:58;10.50;99.90
52919;DHT22;38793;52.690;6.812;2023-02-15T16:06:36;10.50;99.90
52919;DHT22;38793;52.690;6.812;2023-02-15T16:09:22;10.50;99.90
52919;DHT22;38793;52.690;6.812;2023-02-15T16:11:51;10.50;99.90
52919;DHT22;38793;52.690;6.812;2023-02-15T16:14:28;10.40;99.90
52919;DHT22;38793;52.690;6.812;2023-02-15T16:16:58;10.30;99.90
52919;DHT22;38793;52.690;6.812;2023-02-15T16:19:28;10.20;99.90
52919;DHT22;38793;52.690;6.812;2023-02-15T16:21:55;10.10;99.90
52919;DHT22;38793;52.690;6.812;2023-02-15T16:27:23;10.00;99.90
52919;DHT22;38793;52.690;6.812;2023-02-15T16:29:52;9.90;99.90
52919;DHT22;38793;52.690;6.812;2023-02-15T16:32:27;9.90;99.90
52919;DHT22;38793;52.690;6.812;2023-02-15T16:34:58;9.80;99.90
52919;DHT22;38793;52.690;6.812;2023-02-15T16:37:27;9.80;99.90
52919;DHT22;38793;52.690;6.812;2023-02-15T16:39:55;9.80;99.90
52919;DHT22;38793;52.690;6.812;2023-02-15T16:42:22;9.70;99.90
52919;DHT22;38793;52.690;6.812;2023-02-15T16:45:09;9.60;99.90
52919;DHT22;38793;52.690;6.812;2023-02-15T16:47:42;9.60;99.90
52919;DHT22;38793;52.690;6.812;2023-02-15T16:50:18;9.50;99.90
52919;DHT22;38793;52.690;6.812;2023-02-15T16:52:45;9.40;99.90
52919;DHT22;38793;52.690;6.812;2023-02-15T16:55:20;9.30;99.90
52919;DHT22;38793;52.690;6.812;2023-02-15T16:57:47;9.20;99.90
52919;DHT22;38793;52.690;6.812;2023-02-15T17:00:20;9.20;99.90
52919;DHT22;38793;52.690;6.812;2023-02-15T17:03:04;9.20;99.90
52919;DHT22;38793;52.690;6.812;2023-02-15T17:05:51;9.20;99.90
52919;DHT22;38793;52.690;6.812;2023-02-15T17:08:26;9.10;99.90
52919;DHT22;38793;52.690;6.812;2023-02-15T17:11:19;9.10;99.90
52919;DHT22;38793;52.690;6.812;2023-02-15T17:16:34;9.10;99.90
52919;DHT22;38793;52.690;6.812;2023-02-15T17:19:22;9.00;99.90
52919;DHT22;38793;52.690;6.812;2023-02-15T17:22:06;9.00;99.90
52919;DHT22;38793;52.690;6.812;2023-02-15T17:27:02;8.90;99.90
52919;DHT22;38793;52.690;6.812;2023-02-15T17:29:44;8.90;99.90
52919;DHT22;38793;52.690;6.812;2023-02-15T17:32:19;8.90;99.90
52919;DHT22;38793;52.690;6.812;2023-02-15T17:40:26;8.90;99.90
52919;DHT22;38793;52.690;6.812;2023-02-15T17:42:52;8.80;99.90
52919;DHT22;38793;52.690;6.812;2023-02-15T17:45:19;8.80;99.90
52919;DHT22;38793;52.690;6.812;2023-02-15T17:47:45;8.70;99.90
52919;DHT22;38793;52.690;6.812;2023-02-15T17:50:21;8.70;99.90
52919;DHT22;38793;52.690;6.812;2023-02-15T17:52:47;8.60;99.90
52919;DHT22;38793;52.690;6.812;2023-02-15T17:55:15;8.50;99.90
52919;DHT22;38793;52.690;6.812;2023-02-15T17:58:01;8.40;99.90
52919;DHT22;38793;52.690;6.812;2023-02-15T18:00:27;8.40;99.90
52919;DHT22;38793;52.690;6.812;2023-02-15T18:03:12;8.40;99.90
52919;DHT22;38793;52.690;6.812;2023-02-15T18:05:57;8.30;99.90
52919;DHT22;38793;52.690;6.812;2023-02-15T18:08:41;8.20;99.90
52919;DHT22;38793;52.690;6.812;2023-02-15T18:11:25;8.30;99.90
52919;DHT22;38793;52.690;6.812;2023-02-15T18:14:01;8.20;99.90
52919;DHT22;38793;52.690;6.812;2023-02-15T18:16:38;8.20;99.90
52919;DHT22;38793;52.690;6.812;2023-02-15T18:19:05;8.20;99.90
52919;DHT22;38793;52.690;6.812;2023-02-15T18:21:34;8.00;99.90
52919;DHT22;38793;52.690;6.812;2023-02-15T18:24:00;8.00;99.90
52919;DHT22;38793;52.690;6.812;2023-02-15T18:26:27;7.90;99.90
52919;DHT22;38793;52.690;6.812;2023-02-15T18:28:53;7.90;99.90
52919;DHT22;38793;52.690;6.812;2023-02-15T18:31:19;7.80;99.90
52919;DHT22;38793;52.690;6.812;2023-02-15T18:33:56;7.70;99.90
52919;DHT22;38793;52.690;6.812;2023-02-15T18:36:28;7.70;99.90
52919;DHT22;38793;52.690;6.812;2023-02-15T18:38:55;7.70;99.90
52919;DHT22;38793;52.690;6.812;2023-02-15T18:41:21;7.60;99.90
52919;DHT22;38793;52.690;6.812;2023-02-15T18:43:48;7.50;99.90
52919;DHT22;38793;52.690;6.812;2023-02-15T18:46:15;7.50;99.90